sensor_id;sensor_type;location;lat;lon;timestamp;P1;durP1;ratioP1;P2;durP2;ratioP2
50393;SDS011;36308;46.312;25.288;2022-12-07T00:01:13;16.58;;;9.20;;
50393;SDS011;36308;46.312;25.288;2022-12-07T00:03:41;13.55;;;7.55;;
50393;SDS011;36308;46.312;25.288;2022-12-07T00:06:08;13.57;;;7.93;;
50393;SDS011;36308;46.312;25.288;2022-12-07T00:08:35;11.65;;;7.32;;
50393;SDS011;36308;46.312;25.288;2022-12-07T00:11:20;12.98;;;7.45;;
50393;SDS011;36308;46.312;25.288;2022-12-07T00:13:47;13.07;;;7.32;;
50393;SDS011;36308;46.312;25.288;2022-12-07T00:16:17;12.77;;;7.70;;
50393;SDS011;36308;46.312;25.288;2022-12-07T00:18:43;15.02;;;9.15;;
50393;SDS011;36308;46.312;25.288;2022-12-07T00:21:10;16.83;;;10.02;;
50393;SDS011;36308;46.312;25.288;2022-12-07T00:23:41;18.35;;;10.65;;
50393;SDS011;36308;46.312;25.288;2022-12-07T00:26:09;16.60;;;9.80;;
50393;SDS011;36308;46.312;25.288;2022-12-07T00:28:36;18.63;;;9.00;;
50393;SDS011;36308;46.312;25.288;2022-12-07T00:31:03;13.63;;;7.70;;
50393;SDS011;36308;46.312;25.288;2022-12-07T00:33:30;14.20;;;8.07;;
50393;SDS011;36308;46.312;25.288;2022-12-07T00:35:56;13.25;;;7.70;;
50393;SDS011;36308;46.312;25.288;2022-12-07T00:38:23;13.02;;;8.30;;
50393;SDS011;36308;46.312;25.288;2022-12-07T00:40:59;15.10;;;7.97;;
50393;SDS011;36308;46.312;25.288;2022-12-07T00:43:25;12.32;;;7.75;;
50393;SDS011;36308;46.312;25.288;2022-12-07T00:45:52;15.88;;;7.53;;
50393;SDS011;36308;46.312;25.288;2022-12-07T00:48:18;13.43;;;8.00;;
50393;SDS011;36308;46.312;25.288;2022-12-07T00:50:44;14.90;;;9.05;;
50393;SDS011;36308;46.312;25.288;2022-12-07T00:53:09;15.15;;;8.90;;
50393;SDS011;36308;46.312;25.288;2022-12-07T00:55:35;18.33;;;10.43;;
50393;SDS011;36308;46.312;25.288;2022-12-07T00:58:01;13.43;;;9.10;;
50393;SDS011;36308;46.312;25.288;2022-12-07T01:00:27;12.98;;;8.32;;
50393;SDS011;36308;46.312;25.288;2022-12-07T01:02:52;17.38;;;8.32;;
50393;SDS011;36308;46.312;25.288;2022-12-07T01:05:18;16.23;;;8.68;;
50393;SDS011;36308;46.312;25.288;2022-12-07T01:07:44;14.95;;;8.80;;
50393;SDS011;36308;46.312;25.288;2022-12-07T01:10:11;12.25;;;7.80;;
50393;SDS011;36308;46.312;25.288;2022-12-07T01:12:36;13.98;;;7.88;;
50393;SDS011;36308;46.312;25.288;2022-12-07T01:15:02;14.25;;;8.73;;
50393;SDS011;36308;46.312;25.288;2022-12-07T01:17:27;15.50;;;10.27;;
50393;SDS011;36308;46.312;25.288;2022-12-07T01:19:53;14.95;;;9.38;;
50393;SDS011;36308;46.312;25.288;2022-12-07T01:22:19;15.48;;;8.23;;
50393;SDS011;36308;46.312;25.288;2022-12-07T01:24:44;15.52;;;8.55;;
50393;SDS011;36308;46.312;25.288;2022-12-07T01:27:11;12.32;;;8.75;;
50393;SDS011;36308;46.312;25.288;2022-12-07T01:29:37;15.00;;;9.40;;
50393;SDS011;36308;46.312;25.288;2022-12-07T01:32:03;14.40;;;9.70;;
50393;SDS011;36308;46.312;25.288;2022-12-07T01:34:28;19.90;;;10.95;;
50393;SDS011;36308;46.312;25.288;2022-12-07T01:36:54;18.20;;;10.85;;
50393;SDS011;36308;46.312;25.288;2022-12-07T01:39:19;18.77;;;11.77;;
50393;SDS011;36308;46.312;25.288;2022-12-07T01:41:45;17.27;;;9.70;;
50393;SDS011;36308;46.312;25.288;2022-12-07T01:44:26;19.23;;;10.82;;
50393;SDS011;36308;46.312;25.288;2022-12-07T01:46:55;17.10;;;10.25;;
50393;SDS011;36308;46.312;25.288;2022-12-07T01:49:23;18.45;;;10.55;;
50393;SDS011;36308;46.312;25.288;2022-12-07T01:51:52;14.95;;;9.32;;
50393;SDS011;36308;46.312;25.288;2022-12-07T01:54:23;15.93;;;8.77;;
50393;SDS011;36308;46.312;25.288;2022-12-07T01:56:51;15.95;;;8.27;;
50393;SDS011;36308;46.312;25.288;2022-12-07T01:59:19;14.23;;;8.25;;
50393;SDS011;36308;46.312;25.288;2022-12-07T02:01:47;18.98;;;9.75;;
50393;SDS011;36308;46.312;25.288;2022-12-07T02:04:13;19.88;;;10.45;;
50393;SDS011;36308;46.312;25.288;2022-12-07T02:06:39;18.98;;;10.10;;
50393;SDS011;36308;46.312;25.288;2022-12-07T02:09:06;19.83;;;10.60;;
50393;SDS011;36308;46.312;25.288;2022-12-07T02:11:32;18.55;;;10.93;;
50393;SDS011;36308;46.312;25.288;2022-12-07T02:13:58;19.73;;;11.38;;
50393;SDS011;36308;46.312;25.288;2022-12-07T02:22:08;18.63;;;11.20;;
50393;SDS011;36308;46.312;25.288;2022-12-07T02:25:13;30.75;;;16.02;;
50393;SDS011;36308;46.312;25.288;2022-12-07T02:30:46;30.45;;;16.38;;
50393;SDS011;36308;46.312;25.288;2022-12-07T02:38:38;28.38;;;16.15;;
50393;SDS011;36308;46.312;25.288;2022-12-07T02:41:12;28.40;;;15.90;;
50393;SDS011;36308;46.312;25.288;2022-12-07T02:43:47;24.08;;;14.48;;
50393;SDS011;36308;46.312;25.288;2022-12-07T02:46:29;19.25;;;12.18;;
50393;SDS011;36308;46.312;25.288;2022-12-07T02:48:59;17.42;;;11.43;;
50393;SDS011;36308;46.312;25.288;2022-12-07T02:51:29;17.00;;;11.20;;
50393;SDS011;36308;46.312;25.288;2022-12-07T02:53:58;16.77;;;11.70;;
50393;SDS011;36308;46.312;25.288;2022-12-07T02:56:43;19.38;;;12.60;;
50393;SDS011;36308;46.312;25.288;2022-12-07T03:13:25;24.08;;;15.23;;
50393;SDS011;36308;46.312;25.288;2022-12-07T03:18:40;16.60;;;11.02;;
50393;SDS011;36308;46.312;25.288;2022-12-07T03:21:14;17.33;;;11.25;;
50393;SDS011;36308;46.312;25.288;2022-12-07T03:23:44;15.75;;;9.82;;
50393;SDS011;36308;46.312;25.288;2022-12-07T03:26:12;17.50;;;10.35;;
50393;SDS011;36308;46.312;25.288;2022-12-07T03:28:41;15.30;;;9.60;;
50393;SDS011;36308;46.312;25.288;2022-12-07T03:33:54;19.13;;;13.27;;
50393;SDS011;36308;46.312;25.288;2022-12-07T03:41:29;11.07;;;7.85;;
50393;SDS011;36308;46.312;25.288;2022-12-07T03:43:56;14.13;;;9.35;;
50393;SDS011;36308;46.312;25.288;2022-12-07T03:48:59;11.73;;;8.27;;
50393;SDS011;36308;46.312;25.288;2022-12-07T03:51:46;11.32;;;8.45;;
50393;SDS011;36308;46.312;25.288;2022-12-07T03:54:36;13.52;;;9.30;;
50393;SDS011;36308;46.312;25.288;2022-12-07T03:57:06;15.15;;;8.82;;
50393;SDS011;36308;46.312;25.288;2022-12-07T03:59:33;13.15;;;9.63;;
50393;SDS011;36308;46.312;25.288;2022-12-07T04:02:04;13.50;;;9.43;;
50393;SDS011;36308;46.312;25.288;2022-12-07T04:04:31;13.85;;;9.73;;
50393;SDS011;36308;46.312;25.288;2022-12-07T04:06:57;15.13;;;9.93;;
50393;SDS011;36308;46.312;25.288;2022-12-07T04:09:23;13.90;;;9.32;;
50393;SDS011;36308;46.312;25.288;2022-12-07T04:11:48;14.70;;;9.65;;
50393;SDS011;36308;46.312;25.288;2022-12-07T04:14:13;13.43;;;9.52;;
50393;SDS011;36308;46.312;25.288;2022-12-07T04:16:43;14.07;;;9.60;;
50393;SDS011;36308;46.312;25.288;2022-12-07T04:19:11;13.38;;;9.23;;
50393;SDS011;36308;46.312;25.288;2022-12-07T04:21:37;13.80;;;9.38;;
50393;SDS011;36308;46.312;25.288;2022-12-07T04:24:03;12.32;;;8.88;;
50393;SDS011;36308;46.312;25.288;2022-12-07T04:26:29;14.43;;;10.00;;
50393;SDS011;36308;46.312;25.288;2022-12-07T04:28:54;13.77;;;8.45;;
50393;SDS011;36308;46.312;25.288;2022-12-07T04:31:20;13.40;;;8.57;;
50393;SDS011;36308;46.312;25.288;2022-12-07T04:33:45;12.77;;;7.80;;
50393;SDS011;36308;46.312;25.288;2022-12-07T04:36:11;14.27;;;9.45;;
50393;SDS011;36308;46.312;25.288;2022-12-07T04:38:36;20.38;;;14.10;;
50393;SDS011;36308;46.312;25.288;2022-12-07T04:41:05;22.85;;;13.80;;
50393;SDS011;36308;46.312;25.288;2022-12-07T04:43:31;22.52;;;14.13;;
50393;SDS011;36308;46.312;25.288;2022-12-07T04:45:56;21.17;;;14.45;;
50393;SDS011;36308;46.312;25.288;2022-12-07T04:48:22;20.52;;;13.65;;
50393;SDS011;36308;46.312;25.288;2022-12-07T04:50:48;22.02;;;14.23;;
50393;SDS011;36308;46.312;25.288;2022-12-07T04:53:16;21.55;;;13.45;;
50393;SDS011;36308;46.312;25.288;2022-12-07T04:55:43;19.70;;;12.80;;
50393;SDS011;36308;46.312;25.288;2022-12-07T04:58:09;19.65;;;11.57;;
50393;SDS011;36308;46.312;25.288;2022-12-07T05:00:34;13.63;;;9.20;;
50393;SDS011;36308;46.312;25.288;2022-12-07T05:03:00;14.27;;;8.85;;
50393;SDS011;36308;46.312;25.288;2022-12-07T05:05:25;16.63;;;10.25;;
50393;SDS011;36308;46.312;25.288;2022-12-07T05:07:51;17.27;;;10.68;;
50393;SDS011;36308;46.312;25.288;2022-12-07T05:10:16;17.50;;;10.30;;
50393;SDS011;36308;46.312;25.288;2022-12-07T05:12:42;20.13;;;11.85;;
50393;SDS011;36308;46.312;25.288;2022-12-07T05:15:08;16.35;;;10.55;;
50393;SDS011;36308;46.312;25.288;2022-12-07T05:17:33;19.50;;;12.57;;
50393;SDS011;36308;46.312;25.288;2022-12-07T05:19:59;15.60;;;9.73;;
50393;SDS011;36308;46.312;25.288;2022-12-07T05:22:24;11.15;;;6.78;;
50393;SDS011;36308;46.312;25.288;2022-12-07T05:24:53;7.30;;;5.03;;
50393;SDS011;36308;46.312;25.288;2022-12-07T05:27:19;16.17;;;9.00;;
50393;SDS011;36308;46.312;25.288;2022-12-07T05:29:45;35.80;;;20.05;;
50393;SDS011;36308;46.312;25.288;2022-12-07T05:32:10;15.55;;;10.05;;
50393;SDS011;36308;46.312;25.288;2022-12-07T05:34:36;11.00;;;6.90;;
50393;SDS011;36308;46.312;25.288;2022-12-07T05:37:02;10.77;;;6.43;;
50393;SDS011;36308;46.312;25.288;2022-12-07T05:39:27;11.13;;;6.07;;
50393;SDS011;36308;46.312;25.288;2022-12-07T05:41:53;7.55;;;5.15;;
50393;SDS011;36308;46.312;25.288;2022-12-07T05:47:02;9.43;;;6.50;;
50393;SDS011;36308;46.312;25.288;2022-12-07T05:49:28;8.63;;;6.40;;
50393;SDS011;36308;46.312;25.288;2022-12-07T05:51:53;10.82;;;7.22;;
50393;SDS011;36308;46.312;25.288;2022-12-07T05:54:19;7.85;;;6.00;;
50393;SDS011;36308;46.312;25.288;2022-12-07T05:56:44;7.57;;;5.32;;
50393;SDS011;36308;46.312;25.288;2022-12-07T05:59:10;8.85;;;5.63;;
50393;SDS011;36308;46.312;25.288;2022-12-07T06:01:48;12.00;;;7.20;;
50393;SDS011;36308;46.312;25.288;2022-12-07T06:04:17;18.55;;;8.65;;
50393;SDS011;36308;46.312;25.288;2022-12-07T06:06:46;12.80;;;9.10;;
50393;SDS011;36308;46.312;25.288;2022-12-07T06:09:12;15.07;;;9.75;;
50393;SDS011;36308;46.312;25.288;2022-12-07T06:11:39;17.10;;;12.18;;
50393;SDS011;36308;46.312;25.288;2022-12-07T06:14:23;24.95;;;17.25;;
50393;SDS011;36308;46.312;25.288;2022-12-07T06:16:49;26.45;;;17.45;;
50393;SDS011;36308;46.312;25.288;2022-12-07T06:19:14;24.83;;;17.27;;
50393;SDS011;36308;46.312;25.288;2022-12-07T06:21:40;29.08;;;19.25;;
50393;SDS011;36308;46.312;25.288;2022-12-07T06:24:05;29.00;;;18.95;;
50393;SDS011;36308;46.312;25.288;2022-12-07T06:26:31;27.15;;;19.40;;
50393;SDS011;36308;46.312;25.288;2022-12-07T06:28:57;29.92;;;20.67;;
50393;SDS011;36308;46.312;25.288;2022-12-07T06:31:22;36.65;;;24.17;;
50393;SDS011;36308;46.312;25.288;2022-12-07T06:33:49;32.97;;;21.05;;
50393;SDS011;36308;46.312;25.288;2022-12-07T06:36:14;35.97;;;23.17;;
50393;SDS011;36308;46.312;25.288;2022-12-07T06:38:40;37.92;;;25.45;;
50393;SDS011;36308;46.312;25.288;2022-12-07T06:41:05;38.75;;;26.00;;
50393;SDS011;36308;46.312;25.288;2022-12-07T06:43:31;47.30;;;31.08;;
50393;SDS011;36308;46.312;25.288;2022-12-07T06:45:57;51.97;;;32.75;;
50393;SDS011;36308;46.312;25.288;2022-12-07T06:48:23;52.20;;;34.05;;
50393;SDS011;36308;46.312;25.288;2022-12-07T06:50:48;55.63;;;36.50;;
50393;SDS011;36308;46.312;25.288;2022-12-07T06:53:14;43.45;;;28.85;;
50393;SDS011;36308;46.312;25.288;2022-12-07T06:55:40;46.33;;;31.20;;
50393;SDS011;36308;46.312;25.288;2022-12-07T06:58:05;51.97;;;33.78;;
50393;SDS011;36308;46.312;25.288;2022-12-07T07:00:31;72.90;;;45.92;;
50393;SDS011;36308;46.312;25.288;2022-12-07T07:02:56;37.63;;;25.60;;
50393;SDS011;36308;46.312;25.288;2022-12-07T07:05:22;36.35;;;24.63;;
50393;SDS011;36308;46.312;25.288;2022-12-07T07:07:48;40.47;;;25.77;;
50393;SDS011;36308;46.312;25.288;2022-12-07T07:10:14;38.53;;;27.08;;
50393;SDS011;36308;46.312;25.288;2022-12-07T07:12:39;55.60;;;36.08;;
50393;SDS011;36308;46.312;25.288;2022-12-07T07:15:05;56.40;;;37.92;;
50393;SDS011;36308;46.312;25.288;2022-12-07T07:17:31;64.75;;;42.33;;
50393;SDS011;36308;46.312;25.288;2022-12-07T07:19:56;70.55;;;46.60;;
50393;SDS011;36308;46.312;25.288;2022-12-07T07:22:22;65.65;;;44.03;;
50393;SDS011;36308;46.312;25.288;2022-12-07T07:24:47;71.28;;;45.13;;
50393;SDS011;36308;46.312;25.288;2022-12-07T07:27:13;62.67;;;42.63;;
50393;SDS011;36308;46.312;25.288;2022-12-07T07:29:38;51.50;;;34.75;;
50393;SDS011;36308;46.312;25.288;2022-12-07T07:32:04;48.00;;;31.85;;
50393;SDS011;36308;46.312;25.288;2022-12-07T07:34:29;43.58;;;30.30;;
50393;SDS011;36308;46.312;25.288;2022-12-07T07:36:55;47.00;;;29.85;;
50393;SDS011;36308;46.312;25.288;2022-12-07T07:39:20;48.90;;;30.77;;
50393;SDS011;36308;46.312;25.288;2022-12-07T07:41:46;47.60;;;26.85;;
50393;SDS011;36308;46.312;25.288;2022-12-07T07:44:12;46.50;;;25.85;;
50393;SDS011;36308;46.312;25.288;2022-12-07T07:46:37;32.05;;;20.15;;
50393;SDS011;36308;46.312;25.288;2022-12-07T07:49:03;29.80;;;19.70;;
50393;SDS011;36308;46.312;25.288;2022-12-07T07:51:28;32.10;;;19.88;;
50393;SDS011;36308;46.312;25.288;2022-12-07T07:53:54;28.45;;;18.52;;
50393;SDS011;36308;46.312;25.288;2022-12-07T07:56:19;26.85;;;16.58;;
50393;SDS011;36308;46.312;25.288;2022-12-07T08:05:28;27.38;;;17.33;;
50393;SDS011;36308;46.312;25.288;2022-12-07T08:07:54;29.23;;;17.48;;
50393;SDS011;36308;46.312;25.288;2022-12-07T08:10:19;29.50;;;19.55;;
50393;SDS011;36308;46.312;25.288;2022-12-07T08:12:45;30.80;;;20.15;;
50393;SDS011;36308;46.312;25.288;2022-12-07T08:15:29;31.10;;;21.27;;
50393;SDS011;36308;46.312;25.288;2022-12-07T08:17:56;28.70;;;18.42;;
50393;SDS011;36308;46.312;25.288;2022-12-07T08:20:21;19.42;;;13.23;;
50393;SDS011;36308;46.312;25.288;2022-12-07T08:22:47;16.95;;;11.57;;
50393;SDS011;36308;46.312;25.288;2022-12-07T08:25:12;13.80;;;9.45;;
50393;SDS011;36308;46.312;25.288;2022-12-07T08:27:38;13.80;;;9.35;;
50393;SDS011;36308;46.312;25.288;2022-12-07T08:30:04;15.77;;;11.13;;
50393;SDS011;36308;46.312;25.288;2022-12-07T08:32:30;19.13;;;13.85;;
50393;SDS011;36308;46.312;25.288;2022-12-07T08:34:55;16.35;;;11.57;;
50393;SDS011;36308;46.312;25.288;2022-12-07T08:37:21;14.88;;;10.35;;
50393;SDS011;36308;46.312;25.288;2022-12-07T08:39:46;20.88;;;13.45;;
50393;SDS011;36308;46.312;25.288;2022-12-07T08:42:12;15.40;;;10.50;;
50393;SDS011;36308;46.312;25.288;2022-12-07T08:44:37;13.93;;;10.18;;
50393;SDS011;36308;46.312;25.288;2022-12-07T08:47:04;45.75;;;27.17;;
50393;SDS011;36308;46.312;25.288;2022-12-07T08:49:32;20.02;;;10.32;;
50393;SDS011;36308;46.312;25.288;2022-12-07T08:52:03;11.57;;;7.63;;
50393;SDS011;36308;46.312;25.288;2022-12-07T08:54:30;13.60;;;8.00;;
50393;SDS011;36308;46.312;25.288;2022-12-07T08:56:56;29.48;;;17.10;;
50393;SDS011;36308;46.312;25.288;2022-12-07T08:59:21;23.00;;;16.35;;
50393;SDS011;36308;46.312;25.288;2022-12-07T09:01:48;12.73;;;7.97;;
50393;SDS011;36308;46.312;25.288;2022-12-07T09:04:13;12.00;;;7.53;;
50393;SDS011;36308;46.312;25.288;2022-12-07T09:06:39;11.40;;;7.50;;
50393;SDS011;36308;46.312;25.288;2022-12-07T09:09:04;12.43;;;7.97;;
50393;SDS011;36308;46.312;25.288;2022-12-07T09:11:31;11.25;;;8.32;;
50393;SDS011;36308;46.312;25.288;2022-12-07T09:13:57;6.88;;;4.40;;
50393;SDS011;36308;46.312;25.288;2022-12-07T09:16:22;8.13;;;5.43;;
50393;SDS011;36308;46.312;25.288;2022-12-07T09:18:48;13.98;;;6.38;;
50393;SDS011;36308;46.312;25.288;2022-12-07T09:21:13;21.58;;;9.40;;
50393;SDS011;36308;46.312;25.288;2022-12-07T09:23:39;14.20;;;7.70;;
50393;SDS011;36308;46.312;25.288;2022-12-07T09:26:07;13.68;;;8.93;;
50393;SDS011;36308;46.312;25.288;2022-12-07T09:28:33;9.48;;;5.97;;
50393;SDS011;36308;46.312;25.288;2022-12-07T09:30:58;8.35;;;4.75;;
50393;SDS011;36308;46.312;25.288;2022-12-07T09:33:24;7.95;;;4.80;;
50393;SDS011;36308;46.312;25.288;2022-12-07T09:35:50;10.15;;;5.68;;
50393;SDS011;36308;46.312;25.288;2022-12-07T09:38:18;9.35;;;6.55;;
50393;SDS011;36308;46.312;25.288;2022-12-07T09:40:44;9.88;;;6.18;;
50393;SDS011;36308;46.312;25.288;2022-12-07T09:43:18;24.58;;;15.57;;
50393;SDS011;36308;46.312;25.288;2022-12-07T09:45:47;17.52;;;10.98;;
50393;SDS011;36308;46.312;25.288;2022-12-07T09:51:13;13.02;;;9.18;;
50393;SDS011;36308;46.312;25.288;2022-12-07T09:53:42;10.35;;;7.30;;
50393;SDS011;36308;46.312;25.288;2022-12-07T09:58:58;9.45;;;6.32;;
50393;SDS011;36308;46.312;25.288;2022-12-07T10:01:27;20.15;;;12.45;;
50393;SDS011;36308;46.312;25.288;2022-12-07T10:03:55;15.25;;;9.85;;
50393;SDS011;36308;46.312;25.288;2022-12-07T10:06:26;19.88;;;10.25;;
50393;SDS011;36308;46.312;25.288;2022-12-07T10:08:52;16.65;;;9.88;;
50393;SDS011;36308;46.312;25.288;2022-12-07T10:11:17;16.88;;;11.43;;
50393;SDS011;36308;46.312;25.288;2022-12-07T10:13:47;13.35;;;8.90;;
50393;SDS011;36308;46.312;25.288;2022-12-07T10:18:48;12.88;;;8.27;;
50393;SDS011;36308;46.312;25.288;2022-12-07T10:21:15;10.68;;;7.00;;
50393;SDS011;36308;46.312;25.288;2022-12-07T10:26:36;9.95;;;6.57;;
50393;SDS011;36308;46.312;25.288;2022-12-07T10:31:37;52.35;;;25.48;;
50393;SDS011;36308;46.312;25.288;2022-12-07T10:34:12;94.18;;;37.17;;
50393;SDS011;36308;46.312;25.288;2022-12-07T10:36:51;33.90;;;18.58;;
50393;SDS011;36308;46.312;25.288;2022-12-07T10:39:18;10.30;;;7.20;;
50393;SDS011;36308;46.312;25.288;2022-12-07T10:44:33;13.32;;;8.80;;
50393;SDS011;36308;46.312;25.288;2022-12-07T10:58:24;9.80;;;5.80;;
50393;SDS011;36308;46.312;25.288;2022-12-07T11:07:11;7.07;;;4.82;;
50393;SDS011;36308;46.312;25.288;2022-12-07T11:10:03;8.35;;;5.63;;
50393;SDS011;36308;46.312;25.288;2022-12-07T11:12:41;11.88;;;7.40;;
50393;SDS011;36308;46.312;25.288;2022-12-07T11:16:01;25.40;;;16.38;;
50393;SDS011;36308;46.312;25.288;2022-12-07T11:18:46;18.92;;;11.63;;
50393;SDS011;36308;46.312;25.288;2022-12-07T11:24:17;9.98;;;6.80;;
50393;SDS011;36308;46.312;25.288;2022-12-07T11:37:15;4.57;;;2.80;;
50393;SDS011;36308;46.312;25.288;2022-12-07T11:39:51;4.88;;;2.97;;
50393;SDS011;36308;46.312;25.288;2022-12-07T11:45:00;5.82;;;3.58;;
50393;SDS011;36308;46.312;25.288;2022-12-07T11:50:38;8.13;;;5.85;;
50393;SDS011;36308;46.312;25.288;2022-12-07T12:04:06;7.05;;;3.80;;
50393;SDS011;36308;46.312;25.288;2022-12-07T12:06:42;7.18;;;4.40;;
50393;SDS011;36308;46.312;25.288;2022-12-07T12:09:13;6.43;;;4.40;;
50393;SDS011;36308;46.312;25.288;2022-12-07T12:22:28;6.28;;;4.68;;
50393;SDS011;36308;46.312;25.288;2022-12-07T12:25:07;7.57;;;5.22;;
50393;SDS011;36308;46.312;25.288;2022-12-07T12:27:50;7.10;;;4.90;;
50393;SDS011;36308;46.312;25.288;2022-12-07T12:30:35;11.65;;;4.35;;
50393;SDS011;36308;46.312;25.288;2022-12-07T12:35:38;4.20;;;3.03;;
50393;SDS011;36308;46.312;25.288;2022-12-07T12:38:37;4.88;;;2.83;;
50393;SDS011;36308;46.312;25.288;2022-12-07T12:40:59;7.53;;;4.00;;
50393;SDS011;36308;46.312;25.288;2022-12-07T12:43:45;8.45;;;4.40;;
50393;SDS011;36308;46.312;25.288;2022-12-07T12:51:43;4.65;;;3.35;;
50393;SDS011;36308;46.312;25.288;2022-12-07T12:56:42;5.65;;;3.53;;
50393;SDS011;36308;46.312;25.288;2022-12-07T13:01:47;4.45;;;3.10;;
50393;SDS011;36308;46.312;25.288;2022-12-07T13:04:25;4.43;;;3.15;;
50393;SDS011;36308;46.312;25.288;2022-12-07T13:06:55;6.55;;;4.32;;
50393;SDS011;36308;46.312;25.288;2022-12-07T13:09:25;6.13;;;4.10;;
50393;SDS011;36308;46.312;25.288;2022-12-07T13:11:57;11.18;;;6.82;;
50393;SDS011;36308;46.312;25.288;2022-12-07T13:14:39;8.32;;;4.85;;
50393;SDS011;36308;46.312;25.288;2022-12-07T13:19:57;5.13;;;3.55;;
50393;SDS011;36308;46.312;25.288;2022-12-07T13:24:58;9.02;;;5.57;;
50393;SDS011;36308;46.312;25.288;2022-12-07T13:27:30;11.43;;;7.90;;
50393;SDS011;36308;46.312;25.288;2022-12-07T13:29:56;37.33;;;19.00;;
50393;SDS011;36308;46.312;25.288;2022-12-07T13:32:24;10.60;;;6.47;;
50393;SDS011;36308;46.312;25.288;2022-12-07T13:34:54;8.05;;;5.50;;
50393;SDS011;36308;46.312;25.288;2022-12-07T13:37:24;11.63;;;6.65;;
50393;SDS011;36308;46.312;25.288;2022-12-07T13:39:54;9.30;;;5.63;;
50393;SDS011;36308;46.312;25.288;2022-12-07T13:44:55;16.10;;;9.93;;
50393;SDS011;36308;46.312;25.288;2022-12-07T13:50:27;16.05;;;9.35;;
50393;SDS011;36308;46.312;25.288;2022-12-07T13:52:57;19.40;;;9.77;;
50393;SDS011;36308;46.312;25.288;2022-12-07T13:55:24;16.55;;;9.55;;
50393;SDS011;36308;46.312;25.288;2022-12-07T13:57:51;13.57;;;8.70;;
50393;SDS011;36308;46.312;25.288;2022-12-07T14:00:19;18.50;;;9.05;;
50393;SDS011;36308;46.312;25.288;2022-12-07T14:02:55;22.95;;;11.75;;
50393;SDS011;36308;46.312;25.288;2022-12-07T14:05:25;26.15;;;12.43;;
50393;SDS011;36308;46.312;25.288;2022-12-07T14:07:59;27.15;;;14.02;;
50393;SDS011;36308;46.312;25.288;2022-12-07T14:10:30;24.52;;;12.38;;
50393;SDS011;36308;46.312;25.288;2022-12-07T14:15:51;28.50;;;17.30;;
50393;SDS011;36308;46.312;25.288;2022-12-07T14:18:24;62.83;;;29.13;;
50393;SDS011;36308;46.312;25.288;2022-12-07T14:21:14;83.65;;;41.22;;
50393;SDS011;36308;46.312;25.288;2022-12-07T14:23:43;86.05;;;43.83;;
50393;SDS011;36308;46.312;25.288;2022-12-07T14:26:13;57.63;;;37.70;;
50393;SDS011;36308;46.312;25.288;2022-12-07T14:28:41;30.13;;;19.02;;
50393;SDS011;36308;46.312;25.288;2022-12-07T14:31:12;30.92;;;19.23;;
50393;SDS011;36308;46.312;25.288;2022-12-07T14:33:40;36.88;;;24.10;;
50393;SDS011;36308;46.312;25.288;2022-12-07T14:36:09;27.83;;;18.10;;
50393;SDS011;36308;46.312;25.288;2022-12-07T14:38:37;20.42;;;14.45;;
50393;SDS011;36308;46.312;25.288;2022-12-07T14:41:03;23.30;;;13.45;;
50393;SDS011;36308;46.312;25.288;2022-12-07T14:43:47;17.33;;;11.32;;
50393;SDS011;36308;46.312;25.288;2022-12-07T14:46:13;13.48;;;9.48;;
50393;SDS011;36308;46.312;25.288;2022-12-07T14:48:39;16.15;;;10.43;;
50393;SDS011;36308;46.312;25.288;2022-12-07T14:51:04;13.95;;;9.27;;
50393;SDS011;36308;46.312;25.288;2022-12-07T14:53:33;17.98;;;10.32;;
50393;SDS011;36308;46.312;25.288;2022-12-07T14:56:02;25.42;;;13.93;;
50393;SDS011;36308;46.312;25.288;2022-12-07T14:58:30;27.60;;;17.20;;
50393;SDS011;36308;46.312;25.288;2022-12-07T15:00:57;47.13;;;26.17;;
50393;SDS011;36308;46.312;25.288;2022-12-07T15:03:23;51.50;;;28.13;;
50393;SDS011;36308;46.312;25.288;2022-12-07T15:05:48;42.80;;;25.80;;
50393;SDS011;36308;46.312;25.288;2022-12-07T15:08:14;31.02;;;20.13;;
50393;SDS011;36308;46.312;25.288;2022-12-07T15:10:39;47.10;;;28.45;;
50393;SDS011;36308;46.312;25.288;2022-12-07T15:13:05;80.03;;;53.33;;
50393;SDS011;36308;46.312;25.288;2022-12-07T15:15:50;106.68;;;76.00;;
50393;SDS011;36308;46.312;25.288;2022-12-07T15:18:17;79.18;;;54.30;;
50393;SDS011;36308;46.312;25.288;2022-12-07T15:20:44;63.85;;;41.65;;
50393;SDS011;36308;46.312;25.288;2022-12-07T15:23:10;52.33;;;36.33;;
50393;SDS011;36308;46.312;25.288;2022-12-07T15:25:35;39.38;;;28.88;;
50393;SDS011;36308;46.312;25.288;2022-12-07T15:28:01;49.00;;;33.00;;
50393;SDS011;36308;46.312;25.288;2022-12-07T15:30:27;52.40;;;33.65;;
50393;SDS011;36308;46.312;25.288;2022-12-07T15:32:53;70.07;;;41.17;;
50393;SDS011;36308;46.312;25.288;2022-12-07T15:35:19;105.05;;;58.72;;
50393;SDS011;36308;46.312;25.288;2022-12-07T15:37:46;63.22;;;39.05;;
50393;SDS011;36308;46.312;25.288;2022-12-07T15:40:12;103.28;;;65.53;;
50393;SDS011;36308;46.312;25.288;2022-12-07T15:42:39;90.82;;;52.72;;
50393;SDS011;36308;46.312;25.288;2022-12-07T15:45:05;85.55;;;50.05;;
50393;SDS011;36308;46.312;25.288;2022-12-07T15:47:33;88.32;;;56.80;;
50393;SDS011;36308;46.312;25.288;2022-12-07T15:50:03;56.90;;;34.78;;
50393;SDS011;36308;46.312;25.288;2022-12-07T15:52:31;100.93;;;52.63;;
50393;SDS011;36308;46.312;25.288;2022-12-07T15:54:57;83.63;;;42.95;;
50393;SDS011;36308;46.312;25.288;2022-12-07T15:57:24;85.82;;;45.45;;
50393;SDS011;36308;46.312;25.288;2022-12-07T15:59:50;133.68;;;69.03;;
50393;SDS011;36308;46.312;25.288;2022-12-07T16:02:16;135.57;;;68.15;;
50393;SDS011;36308;46.312;25.288;2022-12-07T16:04:41;165.15;;;72.68;;
50393;SDS011;36308;46.312;25.288;2022-12-07T16:07:07;79.53;;;39.17;;
50393;SDS011;36308;46.312;25.288;2022-12-07T16:09:33;70.03;;;39.58;;
50393;SDS011;36308;46.312;25.288;2022-12-07T16:11:58;98.00;;;58.65;;
50393;SDS011;36308;46.312;25.288;2022-12-07T16:14:24;503.25;;;236.30;;
50393;SDS011;36308;46.312;25.288;2022-12-07T16:16:49;232.07;;;113.57;;
50393;SDS011;36308;46.312;25.288;2022-12-07T16:19:15;151.68;;;78.30;;
50393;SDS011;36308;46.312;25.288;2022-12-07T16:21:40;82.25;;;49.45;;
50393;SDS011;36308;46.312;25.288;2022-12-07T16:24:07;74.60;;;45.78;;
50393;SDS011;36308;46.312;25.288;2022-12-07T16:26:33;61.95;;;41.85;;
50393;SDS011;36308;46.312;25.288;2022-12-07T16:28:58;59.92;;;39.25;;
50393;SDS011;36308;46.312;25.288;2022-12-07T16:31:25;56.80;;;38.00;;
50393;SDS011;36308;46.312;25.288;2022-12-07T16:33:55;73.15;;;48.30;;
50393;SDS011;36308;46.312;25.288;2022-12-07T16:36:22;73.18;;;46.35;;
50393;SDS011;36308;46.312;25.288;2022-12-07T16:38:50;85.80;;;48.35;;
50393;SDS011;36308;46.312;25.288;2022-12-07T16:41:15;114.32;;;62.97;;
50393;SDS011;36308;46.312;25.288;2022-12-07T16:43:41;132.25;;;71.15;;
50393;SDS011;36308;46.312;25.288;2022-12-07T16:46:06;124.47;;;72.28;;
50393;SDS011;36308;46.312;25.288;2022-12-07T16:48:35;130.95;;;77.55;;
50393;SDS011;36308;46.312;25.288;2022-12-07T16:51:02;115.72;;;65.72;;
50393;SDS011;36308;46.312;25.288;2022-12-07T16:53:30;107.57;;;63.70;;
50393;SDS011;36308;46.312;25.288;2022-12-07T16:55:55;107.60;;;65.47;;